createdAt,value
2017-01-16T00:00:37.829Z,180.00
2017-01-16T00:01:38.364Z,180.00
2017-01-16T00:02:38.893Z,180.00
2017-01-16T00:03:39.428Z,180.00
2017-01-16T00:04:39.957Z,180.00
2017-01-16T00:05:40.494Z,180.00
2017-01-16T00:06:41.028Z,180.00
2017-01-16T00:07:41.707Z,180.00
2017-01-16T00:08:42.090Z,270.00
2017-01-16T00:09:42.626Z,315.00
2017-01-16T00:10:43.190Z,270.00
2017-01-16T00:11:43.837Z,157.50
2017-01-16T00:12:44.223Z,180.00
2017-01-16T00:13:44.758Z,180.00
2017-01-16T00:14:45.324Z,180.00
2017-01-16T00:15:45.967Z,157.50
2017-01-16T00:16:46.353Z,180.00
2017-01-16T00:17:46.883Z,315.00
2017-01-16T00:18:47.422Z,337.50
2017-01-16T00:19:47.949Z,315.00
2017-01-16T00:20:48.476Z,292.50
2017-01-16T00:21:49.013Z,270.00
2017-01-16T00:22:49.582Z,202.50
2017-01-16T00:23:50.224Z,202.50
2017-01-16T00:24:50.759Z,180.00
2017-01-16T00:25:51.286Z,180.00
2017-01-16T00:26:51.706Z,45.00
2017-01-16T00:27:52.209Z,112.50
2017-01-16T00:28:52.778Z,180.00
2017-01-16T00:29:53.462Z,180.00
2017-01-16T00:30:53.973Z,180.00
2017-01-16T00:31:54.509Z,225.00
2017-01-16T00:32:54.894Z,225.00
2017-01-16T00:33:55.430Z,315.00
2017-01-16T00:34:55.963Z,315.00
2017-01-16T00:35:56.645Z,225.00
2017-01-16T00:36:57.031Z,202.50
2017-01-16T00:37:57.563Z,202.50
2017-01-16T00:38:58.106Z,292.50
2017-01-16T00:39:58.777Z,292.50
2017-01-16T00:40:59.159Z,225.00
2017-01-16T00:41:59.839Z,180.00
2017-01-16T00:43:00.260Z,180.00
2017-01-16T00:44:00.760Z,202.50
2017-01-16T00:45:01.288Z,202.50
2017-01-16T00:46:01.824Z,202.50
2017-01-16T00:47:02.382Z,202.50
2017-01-16T00:48:03.036Z,180.00
2017-01-16T00:49:03.425Z,202.50
2017-01-16T00:50:03.958Z,157.50
2017-01-16T00:51:04.645Z,135.00
2017-01-16T00:52:05.017Z,180.00
2017-01-16T00:53:05.550Z,202.50
2017-01-16T00:54:06.084Z,270.00
2017-01-16T00:55:06.616Z,292.50
2017-01-16T00:56:07.149Z,247.50
2017-01-16T00:57:07.710Z,202.50
2017-01-16T00:58:08.211Z,180.00
2017-01-16T00:59:08.891Z,157.50
2017-01-16T01:00:09.424Z,180.00
2017-01-16T01:01:09.832Z,180.00
2017-01-16T01:02:10.339Z,180.00
2017-01-16T01:03:10.871Z,180.00
2017-01-16T01:04:11.408Z,180.00
2017-01-16T01:05:11.975Z,180.00
2017-01-16T01:06:12.617Z,180.00
2017-01-16T01:07:13.029Z,180.00
2017-01-16T01:08:13.562Z,180.00
2017-01-16T01:09:14.089Z,202.50
2017-01-16T01:10:14.751Z,202.50
2017-01-16T01:11:15.167Z,180.00
2017-01-16T01:12:15.823Z,180.00
2017-01-16T01:13:16.246Z,135.00
2017-01-16T01:14:16.749Z,157.50
2017-01-16T01:15:17.316Z,180.00
2017-01-16T01:16:17.815Z,180.00
2017-01-16T01:17:18.342Z,202.50
2017-01-16T01:18:18.887Z,337.50
2017-01-16T01:19:19.409Z,337.50
2017-01-16T01:20:19.945Z,337.50
2017-01-16T01:21:20.633Z,337.50
2017-01-16T01:22:21.015Z,247.50
2017-01-16T01:23:21.546Z,202.50
2017-01-16T01:24:22.081Z,202.50
2017-01-16T01:25:22.639Z,180.00
2017-01-16T01:26:23.169Z,135.00
2017-01-16T01:27:23.826Z,157.50
2017-01-16T01:28:24.229Z,180.00
2017-01-16T01:29:24.741Z,180.00
2017-01-16T01:30:25.276Z,180.00
2017-01-16T01:31:25.805Z,180.00
2017-01-16T01:32:26.342Z,180.00
2017-01-16T01:33:26.895Z,157.50
2017-01-16T01:34:27.406Z,180.00
2017-01-16T01:35:27.968Z,180.00
2017-01-16T01:36:28.622Z,180.00
2017-01-16T01:37:29.007Z,180.00
2017-01-16T01:38:29.690Z,180.00
2017-01-16T01:39:30.079Z,180.00
2017-01-16T01:40:30.611Z,202.50
2017-01-16T01:41:31.173Z,180.00
2017-01-16T01:42:31.683Z,22.50
2017-01-16T01:43:32.246Z,315.00
2017-01-16T01:44:32.747Z,337.50
2017-01-16T01:45:33.307Z,337.50
2017-01-16T01:46:33.814Z,202.50
2017-01-16T01:47:34.496Z,67.50
2017-01-16T01:48:34.885Z,45.00
2017-01-16T01:49:35.709Z,45.00
2017-01-16T01:50:36.138Z,157.50
2017-01-16T01:51:36.483Z,315.00
2017-01-16T01:52:37.160Z,337.50
2017-01-16T01:53:37.564Z,337.50
2017-01-16T01:54:38.096Z,292.50
2017-01-16T01:55:38.665Z,315.00
2017-01-16T01:56:39.164Z,270.00
2017-01-16T01:57:39.694Z,202.50
2017-01-16T01:58:40.371Z,202.50
2017-01-16T01:59:40.758Z,180.00
2017-01-16T02:00:41.293Z,180.00
2017-01-16T02:01:41.826Z,180.00
2017-01-16T02:02:42.363Z,202.50
2017-01-16T02:03:42.915Z,180.00
2017-01-16T02:04:43.420Z,180.00
2017-01-16T02:05:43.984Z,202.50
2017-01-16T02:06:44.488Z,202.50
2017-01-16T02:07:45.173Z,225.00
2017-01-16T02:08:45.705Z,225.00
2017-01-16T02:09:46.089Z,225.00
2017-01-16T02:10:46.627Z,202.50
2017-01-16T02:11:47.195Z,202.50
2017-01-16T02:12:47.717Z,202.50
2017-01-16T02:13:48.259Z,202.50
2017-01-16T02:14:48.761Z,180.00
2017-01-16T02:15:49.290Z,180.00
2017-01-16T02:16:49.824Z,180.00
2017-01-16T02:17:50.363Z,247.50
2017-01-16T02:18:50.892Z,292.50
2017-01-16T02:19:51.423Z,247.50
2017-01-16T02:20:51.958Z,337.50
2017-01-16T02:21:52.491Z,337.50
2017-01-16T02:22:53.053Z,315.00
2017-01-16T02:23:53.558Z,337.50
2017-01-16T02:24:54.088Z,337.50
2017-01-16T02:25:54.645Z,337.50
2017-01-16T02:26:55.158Z,337.50
2017-01-16T02:27:55.689Z,0.00
2017-01-16T02:28:56.225Z,337.50
2017-01-16T02:29:56.909Z,157.50
2017-01-16T02:30:57.293Z,225.00
2017-01-16T02:31:57.853Z,135.00
2017-01-16T02:32:58.511Z,180.00
2017-01-16T02:33:58.904Z,202.50
2017-01-16T02:34:59.442Z,180.00
2017-01-16T02:36:00.006Z,67.50
2017-01-16T02:37:00.664Z,90.00
2017-01-16T02:38:01.049Z,112.50
2017-01-16T02:39:01.734Z,67.50
2017-01-16T02:40:02.152Z,90.00
2017-01-16T02:41:02.674Z,67.50
2017-01-16T02:42:03.182Z,67.50
2017-01-16T02:43:03.716Z,67.50
2017-01-16T02:44:04.287Z,315.00
2017-01-16T02:45:04.784Z,247.50
2017-01-16T02:46:05.322Z,247.50
2017-01-16T02:47:05.851Z,315.00
2017-01-16T02:48:06.381Z,247.50
2017-01-16T02:49:07.063Z,247.50
2017-01-16T02:50:07.449Z,180.00
2017-01-16T02:51:07.978Z,225.00
2017-01-16T02:52:08.658Z,225.00
2017-01-16T02:53:09.191Z,202.50
2017-01-16T02:54:09.578Z,180.00
2017-01-16T02:55:10.116Z,180.00
2017-01-16T02:56:10.673Z,202.50
2017-01-16T02:57:11.173Z,180.00
2017-01-16T02:58:11.706Z,247.50
2017-01-16T02:59:12.240Z,292.50
2017-01-16T03:00:12.797Z,225.00
2017-01-16T03:01:13.451Z,135.00
2017-01-16T03:02:13.839Z,135.00
2017-01-16T03:03:14.373Z,112.50
2017-01-16T03:04:14.935Z,135.00
2017-01-16T03:05:15.434Z,90.00
2017-01-16T03:06:15.993Z,90.00
2017-01-16T03:07:16.529Z,67.50
2017-01-16T03:08:17.056Z,67.50
2017-01-16T03:09:17.751Z,180.00
2017-01-16T03:10:18.127Z,157.50
2017-01-16T03:11:18.774Z,67.50
2017-01-16T03:12:19.158Z,67.50
2017-01-16T03:13:19.696Z,112.50
2017-01-16T03:14:20.375Z,157.50
2017-01-16T03:15:20.791Z,112.50
2017-01-16T03:16:21.297Z,157.50
2017-01-16T03:17:21.832Z,157.50
2017-01-16T03:18:22.367Z,90.00
2017-01-16T03:19:23.053Z,112.50
2017-01-16T03:20:23.436Z,157.50
2017-01-16T03:21:23.973Z,270.00
2017-01-16T03:22:24.655Z,270.00
2017-01-16T03:23:25.186Z,157.50
2017-01-16T03:24:25.600Z,157.50
2017-01-16T03:25:26.109Z,157.50
2017-01-16T03:26:26.790Z,112.50
2017-01-16T03:27:27.173Z,112.50
2017-01-16T03:28:27.712Z,135.00
2017-01-16T03:29:28.237Z,180.00
2017-01-16T03:30:28.807Z,247.50
2017-01-16T03:31:29.304Z,202.50
2017-01-16T03:32:29.870Z,180.00
2017-01-16T03:33:30.517Z,225.00
2017-01-16T03:34:31.056Z,247.50
2017-01-16T03:35:31.439Z,112.50
2017-01-16T03:36:31.970Z,157.50
2017-01-16T03:37:32.508Z,157.50
2017-01-16T03:38:33.074Z,202.50
2017-01-16T03:39:33.578Z,225.00
2017-01-16T03:40:34.108Z,202.50
2017-01-16T03:41:34.643Z,202.50
2017-01-16T03:42:35.205Z,202.50
2017-01-16T03:43:35.852Z,225.00
2017-01-16T03:44:36.278Z,225.00
2017-01-16T03:45:36.771Z,315.00
2017-01-16T03:46:37.451Z,315.00
2017-01-16T03:47:37.841Z,112.50
2017-01-16T03:48:38.560Z,157.50
2017-01-16T03:49:39.048Z,247.50
2017-01-16T03:50:39.582Z,270.00
2017-01-16T03:51:39.963Z,247.50
2017-01-16T03:52:40.519Z,90.00
2017-01-16T03:53:41.172Z,90.00
2017-01-16T03:54:41.595Z,67.50
2017-01-16T03:55:42.242Z,45.00
2017-01-16T03:56:42.632Z,45.00
2017-01-16T03:57:43.171Z,22.50
2017-01-16T03:58:43.740Z,67.50
2017-01-16T03:59:44.387Z,90.00
2017-01-16T04:00:44.774Z,135.00
2017-01-16T04:01:45.311Z,157.50
2017-01-16T04:02:45.991Z,180.00
2017-01-16T04:03:46.523Z,180.00
2017-01-16T04:04:46.911Z,180.00
2017-01-16T04:05:47.587Z,180.00
2017-01-16T04:06:48.004Z,45.00
2017-01-16T04:07:48.507Z,0.00
2017-01-16T04:08:49.195Z,0.00
2017-01-16T04:09:49.721Z,0.00
2017-01-16T04:10:50.133Z,180.00
2017-01-16T04:11:50.643Z,202.50
2017-01-16T04:12:51.175Z,202.50
2017-01-16T04:13:51.707Z,202.50
2017-01-16T04:14:52.391Z,202.50
2017-01-16T04:15:52.777Z,202.50
2017-01-16T04:16:53.307Z,202.50
2017-01-16T04:17:53.841Z,202.50
2017-01-16T04:18:54.524Z,180.00
2017-01-16T04:19:54.909Z,180.00
2017-01-16T04:20:55.441Z,180.00
2017-01-16T04:21:55.977Z,180.00
2017-01-16T04:22:56.544Z,180.00
2017-01-16T04:23:57.045Z,180.00
2017-01-16T04:24:57.599Z,180.00
2017-01-16T04:25:58.109Z,180.00
2017-01-16T04:26:58.675Z,247.50
2017-01-16T04:27:59.177Z,337.50
2017-01-16T04:29:00.003Z,337.50
2017-01-16T04:30:00.388Z,247.50
2017-01-16T04:31:00.925Z,247.50
2017-01-16T04:32:01.341Z,225.00
2017-01-16T04:33:01.879Z,202.50
2017-01-16T04:34:02.525Z,202.50
2017-01-16T04:35:03.063Z,202.50
2017-01-16T04:36:03.449Z,225.00
2017-01-16T04:37:04.132Z,292.50
2017-01-16T04:38:04.516Z,315.00
2017-01-16T04:39:05.045Z,292.50
2017-01-16T04:40:05.585Z,202.50
2017-01-16T04:41:06.270Z,225.00
2017-01-16T04:42:06.658Z,202.50
2017-01-16T04:43:07.223Z,270.00
2017-01-16T04:44:07.727Z,315.00
2017-01-16T04:45:08.280Z,315.00
2017-01-16T04:46:08.815Z,225.00
2017-01-16T04:47:09.323Z,180.00
2017-01-16T04:48:09.858Z,180.00
2017-01-16T04:49:10.541Z,180.00
2017-01-16T04:50:10.951Z,180.00
2017-01-16T04:51:11.456Z,180.00
2017-01-16T04:52:11.993Z,180.00
2017-01-16T04:53:12.546Z,180.00
2017-01-16T04:54:13.197Z,180.00
2017-01-16T04:55:13.585Z,180.00
2017-01-16T04:56:14.114Z,180.00
2017-01-16T04:57:14.802Z,180.00
2017-01-16T04:58:15.331Z,180.00
2017-01-16T04:59:15.867Z,157.50
2017-01-16T05:00:16.397Z,202.50
2017-01-16T05:01:16.791Z,202.50
2017-01-16T05:02:17.315Z,202.50
2017-01-16T05:03:17.883Z,202.50
2017-01-16T05:04:18.387Z,225.00
2017-01-16T05:05:18.957Z,225.00
2017-01-16T05:06:19.455Z,225.00
2017-01-16T05:07:20.015Z,180.00
2017-01-16T05:08:20.660Z,202.50
2017-01-16T05:09:21.199Z,202.50
2017-01-16T05:10:21.730Z,225.00
2017-01-16T05:11:22.121Z,225.00
2017-01-16T05:12:22.678Z,202.50
2017-01-16T05:13:23.180Z,225.00
2017-01-16T05:14:23.715Z,225.00
2017-01-16T05:15:24.287Z,202.50
2017-01-16T05:16:24.785Z,202.50
2017-01-16T05:17:25.317Z,180.00
2017-01-16T05:18:25.867Z,180.00
2017-01-16T05:19:26.388Z,157.50
2017-01-16T05:20:27.069Z,157.50
2017-01-16T05:21:27.480Z,180.00
2017-01-16T05:22:28.008Z,180.00
2017-01-16T05:23:28.542Z,202.50
2017-01-16T05:24:29.085Z,202.50
2017-01-16T05:25:29.618Z,247.50
2017-01-16T05:26:30.595Z,292.50
2017-01-16T05:27:30.827Z,337.50
2017-01-16T05:28:31.357Z,337.50
2017-01-16T05:29:31.770Z,337.50
2017-01-16T05:30:32.279Z,180.00
2017-01-16T05:31:32.959Z,247.50
2017-01-16T05:32:33.338Z,270.00
2017-01-16T05:33:33.872Z,202.50
2017-01-16T05:34:34.557Z,202.50
2017-01-16T05:35:34.940Z,180.00
2017-01-16T05:36:35.481Z,157.50
2017-01-16T05:37:36.007Z,112.50
2017-01-16T05:38:36.683Z,135.00
2017-01-16T05:39:37.093Z,180.00
2017-01-16T05:40:37.604Z,180.00
2017-01-16T05:41:38.134Z,180.00
2017-01-16T05:42:38.818Z,180.00
2017-01-16T05:43:39.231Z,180.00
2017-01-16T05:44:39.741Z,180.00
2017-01-16T05:45:40.270Z,135.00
2017-01-16T05:46:40.807Z,135.00
2017-01-16T05:47:41.491Z,157.50
2017-01-16T05:48:42.060Z,157.50
2017-01-16T05:49:42.407Z,157.50
2017-01-16T05:50:43.086Z,157.50
2017-01-16T05:51:43.499Z,157.50
2017-01-16T05:52:44.153Z,157.50
2017-01-16T05:53:44.543Z,180.00
2017-01-16T05:54:45.216Z,157.50
2017-01-16T05:55:45.751Z,180.00
2017-01-16T05:56:46.143Z,157.50
2017-01-16T05:57:46.700Z,180.00
2017-01-16T05:58:47.205Z,180.00
2017-01-16T05:59:47.890Z,157.50
2017-01-16T06:00:48.279Z,180.00
2017-01-16T06:01:48.811Z,157.50
2017-01-16T06:02:49.353Z,157.50
2017-01-16T06:03:49.926Z,157.50
2017-01-16T06:04:50.427Z,157.50
2017-01-16T06:05:50.997Z,202.50
2017-01-16T06:06:51.500Z,202.50
2017-01-16T06:07:52.032Z,180.00
2017-01-16T06:08:52.566Z,157.50
2017-01-16T06:09:53.096Z,157.50
2017-01-16T06:10:53.778Z,157.50
2017-01-16T06:11:54.201Z,180.00
2017-01-16T06:12:54.702Z,180.00
2017-01-16T06:13:55.384Z,180.00
2017-01-16T06:14:55.915Z,157.50
2017-01-16T06:15:56.453Z,180.00
2017-01-16T06:16:56.987Z,270.00
2017-01-16T06:17:57.521Z,292.50
2017-01-16T06:18:57.904Z,315.00
2017-01-16T06:19:58.434Z,315.00
2017-01-16T06:20:58.975Z,270.00
2017-01-16T06:21:59.545Z,270.00
2017-01-16T06:23:00.042Z,247.50
2017-01-16T06:24:00.600Z,90.00
2017-01-16T06:25:01.110Z,315.00
2017-01-16T06:26:01.639Z,315.00
2017-01-16T06:27:02.174Z,315.00
2017-01-16T06:28:02.856Z,247.50
2017-01-16T06:29:03.382Z,315.00
2017-01-16T06:30:03.768Z,292.50
2017-01-16T06:31:04.448Z,337.50
2017-01-16T06:32:04.833Z,337.50
2017-01-16T06:33:05.370Z,270.00
2017-01-16T06:34:05.902Z,45.00
2017-01-16T06:35:06.587Z,157.50
2017-01-16T06:36:07.006Z,270.00
2017-01-16T06:37:07.509Z,315.00
2017-01-16T06:38:08.039Z,315.00
2017-01-16T06:39:08.583Z,337.50
2017-01-16T06:40:09.100Z,225.00
2017-01-16T06:41:09.635Z,247.50
2017-01-16T06:42:10.167Z,292.50
2017-01-16T06:43:10.850Z,225.00
2017-01-16T06:44:11.234Z,202.50
2017-01-16T06:45:11.775Z,112.50
2017-01-16T06:46:12.340Z,112.50
2017-01-16T06:47:12.845Z,157.50
2017-01-16T06:48:13.382Z,292.50
2017-01-16T06:49:14.063Z,315.00
2017-01-16T06:50:14.484Z,292.50
2017-01-16T06:51:14.986Z,157.50
2017-01-16T06:52:15.667Z,135.00
2017-01-16T06:53:16.051Z,90.00
2017-01-16T06:54:16.584Z,45.00
2017-01-16T06:55:17.116Z,112.50
2017-01-16T06:56:17.649Z,67.50
2017-01-16T06:57:18.182Z,45.00
2017-01-16T06:58:18.715Z,67.50
2017-01-16T06:59:19.244Z,67.50
2017-01-16T07:00:19.804Z,67.50
2017-01-16T07:01:20.313Z,180.00
2017-01-16T07:02:20.872Z,157.50
2017-01-16T07:03:21.379Z,135.00
2017-01-16T07:04:21.947Z,135.00
2017-01-16T07:05:22.455Z,90.00
2017-01-16T07:06:22.978Z,67.50
2017-01-16T07:07:23.513Z,67.50
2017-01-16T07:08:24.044Z,67.50
2017-01-16T07:09:24.584Z,225.00
2017-01-16T07:10:25.215Z,202.50
2017-01-16T07:11:25.791Z,337.50
2017-01-16T07:12:26.203Z,337.50
2017-01-16T07:13:26.710Z,180.00
2017-01-16T07:14:27.252Z,202.50
2017-01-16T07:15:27.781Z,225.00
2017-01-16T07:16:28.460Z,180.00
2017-01-16T07:17:28.844Z,180.00
2017-01-16T07:18:29.372Z,292.50
2017-01-16T07:19:29.907Z,202.50
2017-01-16T07:20:30.439Z,202.50
2017-01-16T07:21:31.119Z,180.00
2017-01-16T07:22:31.532Z,180.00
2017-01-16T07:23:32.041Z,180.00
2017-01-16T07:24:32.610Z,157.50
2017-01-16T07:25:33.112Z,135.00
2017-01-16T07:26:33.662Z,157.50
2017-01-16T07:27:34.189Z,157.50
2017-01-16T07:28:34.751Z,157.50
2017-01-16T07:29:35.404Z,157.50
2017-01-16T07:30:35.789Z,180.00
2017-01-16T07:31:36.324Z,157.50
2017-01-16T07:32:36.854Z,157.50
2017-01-16T07:33:37.389Z,157.50
2017-01-16T07:34:37.928Z,112.50
2017-01-16T07:35:38.458Z,67.50
2017-01-16T07:36:39.016Z,45.00
2017-01-16T07:37:39.668Z,315.00
2017-01-16T07:38:40.054Z,292.50
2017-01-16T07:39:40.736Z,337.50
2017-01-16T07:40:41.155Z,337.50
2017-01-16T07:41:41.801Z,247.50
2017-01-16T07:42:42.186Z,315.00
2017-01-16T07:43:42.719Z,292.50
2017-01-16T07:44:43.253Z,315.00
2017-01-16T07:45:43.789Z,337.50
2017-01-16T07:46:44.359Z,337.50
2017-01-16T07:47:44.998Z,270.00
2017-01-16T07:48:45.385Z,337.50
2017-01-16T07:49:45.922Z,337.50
2017-01-16T07:50:46.605Z,225.00
2017-01-16T07:51:46.996Z,292.50
2017-01-16T07:52:47.670Z,292.50
2017-01-16T07:53:48.054Z,247.50
2017-01-16T07:54:48.736Z,292.50
2017-01-16T07:55:49.130Z,337.50
2017-01-16T07:56:49.798Z,337.50
2017-01-16T07:57:50.182Z,337.50
2017-01-16T07:58:50.863Z,337.50
2017-01-16T07:59:51.250Z,45.00
2017-01-16T08:00:51.930Z,22.50
2017-01-16T08:01:52.317Z,135.00
2017-01-16T08:02:52.999Z,135.00
2017-01-16T08:03:53.383Z,157.50
2017-01-16T08:04:54.069Z,157.50
2017-01-16T08:05:54.601Z,180.00
2017-01-16T08:06:55.026Z,180.00
2017-01-16T08:07:55.535Z,180.00
2017-01-16T08:08:56.093Z,157.50
2017-01-16T08:09:56.606Z,157.50
2017-01-16T08:10:57.156Z,180.00
2017-01-16T08:11:57.673Z,180.00
2017-01-16T08:12:58.210Z,157.50
2017-01-16T08:13:58.744Z,157.50
2017-01-16T08:14:59.271Z,157.50
2017-01-16T08:15:59.810Z,157.50
2017-01-16T08:17:00.377Z,157.50
2017-01-16T08:18:00.878Z,135.00
2017-01-16T08:19:01.406Z,67.50
2017-01-16T08:20:01.938Z,67.50
2017-01-16T08:21:02.499Z,157.50
2017-01-16T08:22:03.036Z,180.00
2017-01-16T08:23:03.683Z,180.00
2017-01-16T08:24:04.214Z,180.00
2017-01-16T08:25:04.627Z,180.00
2017-01-16T08:26:05.134Z,180.00
2017-01-16T08:27:05.695Z,180.00
2017-01-16T08:28:06.200Z,202.50
2017-01-16T08:29:06.729Z,315.00
2017-01-16T08:30:07.410Z,337.50
2017-01-16T08:31:07.822Z,337.50
2017-01-16T08:32:08.331Z,157.50
2017-01-16T08:33:08.862Z,180.00
2017-01-16T08:34:09.399Z,180.00
2017-01-16T08:35:09.935Z,202.50
2017-01-16T08:36:10.465Z,202.50
2017-01-16T08:37:11.142Z,202.50
2017-01-16T08:38:11.528Z,202.50
2017-01-16T08:39:12.058Z,202.50
2017-01-16T08:40:12.740Z,270.00
2017-01-16T08:41:13.121Z,67.50
2017-01-16T08:42:13.659Z,22.50
2017-01-16T08:43:14.338Z,157.50
2017-01-16T08:44:14.722Z,112.50
2017-01-16T08:45:15.280Z,90.00
2017-01-16T08:46:15.786Z,45.00
2017-01-16T08:47:16.317Z,180.00
2017-01-16T08:48:16.856Z,180.00
2017-01-16T08:49:17.422Z,157.50
2017-01-16T08:50:17.929Z,202.50
2017-01-16T08:51:18.463Z,202.50
2017-01-16T08:52:19.007Z,225.00
2017-01-16T08:53:19.689Z,225.00
2017-01-16T08:54:20.219Z,292.50
2017-01-16T08:55:20.605Z,90.00
2017-01-16T08:56:21.143Z,135.00
2017-01-16T08:57:21.712Z,135.00
2017-01-16T08:58:22.355Z,45.00
2017-01-16T08:59:22.742Z,225.00
2017-01-16T09:00:23.274Z,112.50
2017-01-16T09:01:23.804Z,67.50
2017-01-16T09:02:24.345Z,202.50
2017-01-16T09:03:24.871Z,180.00
2017-01-16T09:04:25.551Z,135.00
2017-01-16T09:05:25.937Z,22.50
2017-01-16T09:06:26.619Z,22.50
2017-01-16T09:07:27.007Z,180.00
2017-01-16T09:08:27.685Z,180.00
2017-01-16T09:09:28.369Z,202.50
2017-01-16T09:10:28.605Z,67.50
2017-01-16T09:11:29.141Z,67.50
2017-01-16T09:12:29.676Z,202.50
2017-01-16T09:13:30.239Z,202.50
2017-01-16T09:14:30.886Z,90.00
2017-01-16T09:15:31.273Z,180.00
2017-01-16T09:16:31.953Z,202.50
2017-01-16T09:17:32.335Z,270.00
2017-01-16T09:18:33.017Z,180.00
2017-01-16T09:19:33.553Z,112.50
2017-01-16T09:20:34.085Z,225.00
2017-01-16T09:21:34.499Z,225.00
2017-01-16T09:22:35.004Z,112.50
2017-01-16T09:23:35.540Z,90.00
2017-01-16T09:24:36.072Z,225.00
2017-01-16T09:25:36.753Z,225.00
2017-01-16T09:26:37.281Z,90.00
2017-01-16T09:27:37.691Z,90.00
2017-01-16T09:28:38.203Z,112.50
2017-01-16T09:29:38.895Z,90.00
2017-01-16T09:30:39.282Z,45.00
2017-01-16T09:31:39.845Z,90.00
2017-01-16T09:32:40.357Z,90.00
2017-01-16T09:33:40.889Z,45.00
2017-01-16T09:34:41.427Z,67.50
2017-01-16T09:35:41.962Z,67.50
2017-01-16T09:36:42.495Z,90.00
2017-01-16T09:37:43.022Z,157.50
2017-01-16T09:38:43.707Z,135.00
2017-01-16T09:39:44.088Z,135.00
2017-01-16T09:40:44.626Z,315.00
2017-01-16T09:41:45.185Z,225.00
2017-01-16T09:42:45.693Z,202.50
2017-01-16T09:43:46.376Z,135.00
2017-01-16T09:45:47.293Z,292.50
2017-01-16T09:46:47.976Z,292.50
2017-01-16T09:47:48.359Z,270.00
2017-01-16T09:48:49.061Z,292.50
2017-01-16T09:49:49.579Z,247.50
2017-01-16T09:50:50.109Z,292.50
2017-01-16T09:51:50.505Z,315.00
2017-01-16T09:52:51.028Z,270.00
2017-01-16T09:53:51.595Z,315.00
2017-01-16T09:54:52.100Z,315.00
2017-01-16T09:55:52.664Z,247.50
2017-01-16T09:56:53.166Z,292.50
2017-01-16T09:57:53.703Z,292.50
2017-01-16T09:58:54.232Z,292.50
2017-01-16T09:59:54.792Z,270.00
2017-01-16T10:00:55.307Z,67.50
2017-01-16T10:01:55.827Z,135.00
2017-01-16T10:02:56.503Z,180.00
2017-01-16T10:03:57.040Z,90.00
2017-01-16T10:04:57.425Z,135.00
2017-01-16T10:05:57.956Z,135.00
2017-01-16T10:06:58.640Z,247.50
2017-01-16T10:07:59.029Z,292.50
2017-01-16T10:08:59.557Z,292.50
2017-01-16T10:10:00.086Z,270.00
2017-01-16T10:11:00.625Z,292.50
2017-01-16T10:12:01.309Z,292.50
2017-01-16T10:13:01.694Z,292.50
2017-01-16T10:14:02.231Z,157.50
2017-01-16T10:15:02.767Z,157.50
2017-01-16T10:16:03.330Z,202.50
2017-01-16T10:17:03.828Z,247.50
2017-01-16T10:18:04.512Z,292.50
2017-01-16T10:19:04.895Z,292.50
2017-01-16T10:20:05.578Z,225.00
2017-01-16T10:21:06.107Z,225.00
2017-01-16T10:22:06.946Z,247.50
2017-01-16T10:23:07.174Z,225.00
2017-01-16T10:24:07.562Z,202.50
2017-01-16T10:25:08.091Z,292.50
2017-01-16T10:26:08.775Z,247.50
2017-01-16T10:27:09.157Z,202.50
2017-01-16T10:28:09.722Z,202.50
2017-01-16T10:29:10.370Z,247.50
2017-01-16T10:30:10.778Z,157.50
2017-01-16T10:31:11.289Z,135.00
2017-01-16T10:32:11.824Z,135.00
2017-01-16T10:33:12.357Z,157.50
2017-01-16T10:34:12.924Z,180.00
2017-01-16T10:35:13.425Z,67.50
2017-01-16T10:36:13.981Z,112.50
2017-01-16T10:37:14.489Z,180.00
2017-01-16T10:38:15.047Z,292.50
2017-01-16T10:39:15.563Z,247.50
2017-01-16T10:40:16.236Z,157.50
2017-01-16T10:41:16.766Z,157.50
2017-01-16T10:42:17.299Z,112.50
2017-01-16T10:43:17.682Z,157.50
2017-01-16T10:44:18.251Z,135.00
2017-01-16T10:45:18.752Z,135.00
2017-01-16T10:46:19.319Z,135.00
2017-01-16T10:47:19.969Z,112.50
2017-01-16T10:48:20.389Z,112.50
2017-01-16T10:49:21.031Z,90.00
2017-01-16T10:50:21.415Z,135.00
2017-01-16T10:51:22.094Z,157.50
2017-01-16T10:52:22.482Z,135.00
2017-01-16T10:53:23.163Z,135.00
2017-01-16T10:54:23.551Z,135.00
2017-01-16T10:55:24.091Z,225.00
2017-01-16T10:56:24.628Z,225.00
2017-01-16T10:57:25.307Z,202.50
2017-01-16T10:58:25.697Z,157.50
2017-01-16T10:59:26.232Z,90.00
2017-01-16T11:00:26.913Z,135.00
2017-01-16T11:01:27.299Z,225.00
2017-01-16T11:02:27.980Z,270.00
2017-01-16T11:03:28.511Z,270.00
2017-01-16T11:04:28.900Z,157.50
2017-01-16T11:05:29.574Z,180.00
2017-01-16T11:06:30.108Z,157.50
2017-01-16T11:07:30.488Z,90.00
2017-01-16T11:08:31.067Z,135.00
2017-01-16T11:09:31.556Z,135.00
2017-01-16T11:10:32.233Z,135.00
2017-01-16T11:11:32.761Z,135.00
2017-01-16T11:12:33.155Z,90.00
2017-01-16T11:13:33.682Z,112.50
2017-01-16T11:14:34.241Z,135.00
2017-01-16T11:15:34.893Z,180.00
2017-01-16T11:16:35.314Z,135.00
2017-01-16T11:17:35.958Z,67.50
2017-01-16T11:18:36.376Z,180.00
2017-01-16T11:19:36.883Z,202.50
2017-01-16T11:20:37.412Z,202.50
2017-01-16T11:21:37.944Z,135.00
2017-01-16T11:22:38.478Z,180.00
2017-01-16T11:23:39.005Z,112.50
2017-01-16T11:24:39.540Z,135.00
2017-01-16T11:25:40.220Z,112.50
2017-01-16T11:26:40.606Z,135.00
2017-01-16T11:27:41.137Z,90.00
2017-01-16T11:28:41.820Z,112.50
2017-01-16T11:29:42.204Z,225.00
2017-01-16T11:30:42.737Z,247.50
2017-01-16T11:31:43.411Z,247.50
2017-01-16T11:32:43.824Z,247.50
2017-01-16T11:33:44.332Z,135.00
2017-01-16T11:34:44.858Z,225.00
2017-01-16T11:35:45.398Z,225.00
2017-01-16T11:36:45.962Z,225.00
2017-01-16T11:37:46.468Z,270.00
2017-01-16T11:38:47.154Z,270.00
2017-01-16T11:39:47.537Z,270.00
2017-01-16T11:40:48.104Z,270.00
2017-01-16T11:41:48.606Z,67.50
2017-01-16T11:42:49.288Z,90.00
2017-01-16T11:43:49.819Z,112.50
2017-01-16T11:44:50.209Z,180.00
2017-01-16T11:45:50.752Z,270.00
2017-01-16T11:46:51.421Z,270.00
2017-01-16T11:47:51.800Z,202.50
2017-01-16T11:48:52.481Z,225.00
2017-01-16T11:49:52.896Z,247.50
2017-01-16T11:50:53.397Z,270.00
2017-01-16T11:51:53.927Z,270.00
2017-01-16T11:52:54.607Z,315.00
2017-01-16T11:53:54.997Z,292.50
2017-01-16T11:54:55.524Z,292.50
2017-01-16T11:55:56.201Z,270.00
2017-01-16T11:56:56.739Z,270.00
2017-01-16T11:57:57.264Z,157.50
2017-01-16T11:58:57.798Z,157.50
2017-01-16T11:59:58.177Z,247.50
2017-01-16T12:00:58.863Z,202.50
2017-01-16T12:01:59.247Z,292.50
2017-01-16T12:02:59.927Z,292.50
2017-01-16T12:04:00.456Z,292.50
2017-01-16T12:05:00.994Z,292.50
2017-01-16T12:06:01.377Z,292.50
2017-01-16T12:07:02.056Z,292.50
2017-01-16T12:08:02.586Z,202.50
2017-01-16T12:09:03.120Z,157.50
2017-01-16T12:10:03.511Z,270.00
2017-01-16T12:11:04.065Z,270.00
2017-01-16T12:12:04.572Z,270.00
2017-01-16T12:13:05.132Z,270.00
2017-01-16T12:14:05.780Z,202.50
2017-01-16T12:15:06.158Z,112.50
2017-01-16T12:16:06.843Z,202.50
2017-01-16T12:17:07.263Z,202.50
2017-01-16T12:18:07.772Z,225.00
2017-01-16T12:19:08.454Z,135.00
2017-01-16T12:20:08.981Z,135.00
2017-01-16T12:21:09.381Z,135.00
2017-01-16T12:22:09.905Z,157.50
2017-01-16T12:23:10.435Z,180.00
2017-01-16T12:24:10.970Z,157.50
2017-01-16T12:25:11.500Z,157.50
2017-01-16T12:26:12.181Z,135.00
2017-01-16T12:27:12.563Z,112.50
2017-01-16T12:28:13.396Z,90.00
2017-01-16T12:29:13.630Z,90.00
2017-01-16T12:30:14.311Z,90.00
2017-01-16T12:31:14.697Z,90.00
2017-01-16T12:32:15.377Z,135.00
2017-01-16T12:33:15.765Z,180.00
2017-01-16T12:34:16.301Z,157.50
2017-01-16T12:35:16.822Z,112.50
2017-01-16T12:36:17.376Z,90.00
2017-01-16T12:37:17.904Z,135.00
2017-01-16T12:38:18.423Z,135.00
2017-01-16T12:39:18.979Z,180.00